JWN weather

John C Tune Airport
Nashville, Tennessee, United States

Public forecast

Using degrees Fahrenheit for public forecast. Weather courtesy of forecast.io.

METAR (pilot weather report)

Retrieved 2019/09/19 01:35 UTC (27 seconds ago):

KJWN 190135Z AUTO 03004KT 10SM 27/17 A3000 RMK A01

TAF (pilot weather forecast)

Closest forecast is Nashville International Airport, 10.7 nm (19.8 km) ESE. Retrieved 2019/09/19 00:03 UTC (2 hours ago):

TAF KBNA 182359Z 1900/1924 04005KT P6SM SKC FM191400 17010KT P6SM SCT050